createdAt,value
2018-10-01T00:01:16.451Z,14.17
2018-10-01T00:05:19.818Z,15.60
2018-10-01T00:09:23.204Z,16.50
2018-10-01T00:13:26.586Z,11.63
2018-10-01T00:17:30.605Z,13.33
2018-10-01T00:21:39.503Z,12.43
2018-10-01T00:25:42.860Z,13.27
2018-10-01T00:29:46.255Z,11.73
2018-10-01T00:33:49.611Z,13.17
2018-10-01T00:37:52.991Z,15.43
2018-10-01T00:41:56.393Z,13.80
2018-10-01T00:45:59.776Z,12.43
2018-10-01T00:50:03.172Z,12.93
2018-10-01T00:54:06.728Z,17.57
2018-10-01T00:58:10.067Z,15.03
2018-10-01T01:02:13.447Z,16.17
2018-10-01T01:06:16.823Z,8.50
2018-10-01T01:10:20.329Z,9.63
2018-10-01T01:14:23.744Z,12.07
2018-10-01T01:18:27.086Z,11.13
2018-10-01T01:22:30.462Z,9.50
2018-10-01T01:26:33.864Z,12.10
2018-10-01T01:30:37.233Z,12.37
2018-10-01T01:34:40.578Z,8.63
2018-10-01T01:38:43.931Z,11.50
2018-10-01T01:42:47.293Z,14.40
2018-10-01T01:46:50.657Z,15.40
2018-10-01T01:50:54.057Z,12.07
2018-10-01T01:54:57.430Z,9.93
2018-10-01T01:59:00.767Z,11.43
2018-10-01T02:03:04.296Z,15.10
2018-10-01T02:07:07.681Z,15.07
2018-10-01T02:11:11.060Z,13.23
2018-10-01T02:15:14.443Z,12.70
2018-10-01T02:19:17.812Z,15.23
2018-10-01T02:23:21.174Z,18.00
2018-10-01T02:27:24.575Z,13.37
2018-10-01T02:31:27.949Z,16.97
2018-10-01T02:35:31.309Z,9.93
2018-10-01T02:39:34.655Z,10.67
2018-10-01T02:43:38.035Z,18.10
2018-10-01T02:47:41.432Z,14.67
2018-10-01T02:51:50.177Z,10.77
2018-10-01T02:55:53.549Z,16.77
2018-10-01T02:59:56.908Z,12.27
2018-10-01T03:04:00.268Z,10.43
2018-10-01T03:08:03.668Z,10.20
2018-10-01T03:12:07.072Z,10.60
2018-10-01T03:16:10.455Z,11.87
2018-10-01T03:20:13.851Z,15.60
2018-10-01T03:24:17.224Z,12.47
2018-10-01T03:28:20.600Z,9.43
2018-10-01T03:32:23.981Z,13.27
2018-10-01T03:36:27.743Z,16.57
2018-10-01T03:40:31.140Z,9.07
2018-10-01T03:44:34.512Z,11.07
2018-10-01T03:48:37.977Z,12.93
2018-10-01T03:52:41.341Z,13.07
2018-10-01T03:56:44.704Z,13.40
2018-10-01T04:00:48.075Z,13.20
2018-10-01T04:04:51.444Z,10.47
2018-10-01T04:08:54.839Z,9.93
2018-10-01T04:12:58.243Z,12.47
2018-10-01T04:17:01.627Z,8.17
2018-10-01T04:21:04.989Z,12.53
2018-10-01T04:25:09.906Z,11.93
2018-10-01T04:29:14.544Z,12.83
2018-10-01T04:33:17.995Z,12.67
2018-10-01T04:37:21.388Z,12.75
2018-10-01T04:41:24.728Z,12.13
2018-10-01T04:45:28.093Z,7.97
2018-10-01T04:49:31.459Z,13.43
2018-10-01T04:53:34.968Z,13.20
2018-10-01T04:57:38.356Z,9.57
2018-10-01T05:01:41.743Z,14.90
2018-10-01T05:05:45.160Z,12.90
2018-10-01T05:09:48.560Z,10.93
2018-10-01T05:13:51.939Z,7.93
2018-10-01T05:17:55.315Z,12.90
2018-10-01T05:21:58.707Z,10.50
2018-10-01T05:26:02.682Z,8.57
2018-10-01T05:30:06.077Z,9.93
2018-10-01T05:34:09.467Z,10.77
2018-10-01T05:38:12.817Z,8.53
2018-10-01T05:42:16.415Z,8.80
2018-10-01T05:46:19.759Z,13.77
2018-10-01T05:50:23.111Z,7.17
2018-10-01T05:54:26.479Z,10.93
2018-10-01T05:58:29.845Z,9.80
2018-10-01T06:02:33.258Z,13.37
2018-10-01T06:06:36.591Z,10.10
2018-10-01T06:10:40.053Z,8.20
2018-10-01T06:14:44.257Z,12.43
2018-10-01T06:18:47.608Z,11.17
2018-10-01T06:22:50.992Z,7.37
2018-10-01T06:26:54.340Z,13.80
2018-10-01T06:30:57.702Z,7.70
2018-10-01T06:35:01.071Z,7.77
2018-10-01T06:39:07.437Z,10.73
2018-10-01T06:43:10.793Z,9.53
2018-10-01T06:47:14.151Z,8.90
2018-10-01T06:51:17.618Z,9.13
2018-10-01T06:55:20.993Z,11.77
2018-10-01T06:59:24.431Z,6.80
2018-10-01T07:03:27.803Z,13.57
2018-10-01T07:07:31.165Z,9.30
2018-10-01T07:11:34.627Z,9.07
2018-10-01T07:15:37.939Z,10.50
2018-10-01T07:19:41.328Z,13.00
2018-10-01T07:23:44.735Z,11.23
2018-10-01T07:27:48.100Z,8.73
2018-10-01T07:31:51.469Z,10.47
2018-10-01T07:36:01.660Z,13.87
2018-10-01T07:40:05.158Z,11.07
2018-10-01T07:44:08.685Z,11.47
2018-10-01T07:48:12.094Z,11.90
2018-10-01T07:52:15.437Z,11.43
2018-10-01T07:56:18.817Z,15.97
2018-10-01T08:00:22.313Z,7.73
2018-10-01T08:04:25.712Z,9.60
2018-10-01T08:08:29.118Z,7.10
2018-10-01T08:12:32.442Z,7.97
2018-10-01T08:16:35.839Z,7.17
2018-10-01T08:20:39.393Z,11.30
2018-10-01T08:24:42.972Z,7.70
2018-10-01T08:28:53.016Z,8.30
2018-10-01T08:32:56.385Z,7.80
2018-10-01T08:36:59.742Z,11.20
2018-10-01T08:41:03.120Z,7.60
2018-10-01T08:45:06.632Z,8.63
2018-10-01T08:49:15.262Z,9.03
2018-10-01T08:53:23.970Z,5.70
2018-10-01T08:57:27.332Z,7.70
2018-10-01T09:01:30.689Z,6.43
2018-10-01T09:05:34.176Z,9.80
2018-10-01T09:09:37.497Z,7.33
2018-10-01T09:13:40.945Z,8.23
2018-10-01T09:17:44.270Z,10.10
2018-10-01T09:21:47.633Z,11.13
2018-10-01T09:25:51.002Z,7.80
2018-10-01T09:29:54.349Z,5.30
2018-10-01T09:33:57.696Z,4.33
2018-10-01T09:38:01.099Z,4.57
2018-10-01T09:42:04.516Z,4.03
2018-10-01T09:46:07.932Z,5.03
2018-10-01T09:50:11.316Z,4.43
2018-10-01T09:54:14.774Z,5.30
2018-10-01T09:58:18.179Z,7.23
2018-10-01T10:02:21.512Z,6.27
2018-10-01T10:06:24.991Z,7.27
2018-10-01T10:10:28.359Z,5.53
2018-10-01T10:14:31.772Z,3.53
2018-10-01T10:18:35.126Z,3.10
2018-10-01T10:22:38.576Z,8.03
2018-10-01T10:26:41.900Z,3.17
2018-10-01T10:30:45.311Z,5.20
2018-10-01T10:34:48.687Z,5.40
2018-10-01T10:38:52.059Z,4.10
2018-10-01T10:42:55.428Z,4.03
2018-10-01T10:46:58.796Z,4.60
2018-10-01T10:51:02.247Z,3.43
2018-10-01T10:55:05.808Z,8.13
2018-10-01T10:59:09.187Z,3.57
2018-10-01T11:03:12.547Z,3.67
2018-10-01T11:07:15.968Z,2.00
2018-10-01T11:11:19.397Z,3.60
2018-10-01T11:15:22.799Z,8.00
2018-10-01T11:19:26.140Z,5.07
2018-10-01T11:23:29.590Z,3.17
2018-10-01T11:27:32.945Z,2.17
2018-10-01T11:31:36.352Z,3.43
2018-10-01T11:35:39.671Z,5.60
2018-10-01T11:39:43.078Z,3.20
2018-10-01T11:43:46.417Z,1.30
2018-10-01T11:47:49.769Z,2.20
2018-10-01T11:51:53.114Z,1.70
2018-10-01T11:55:56.465Z,2.90
2018-10-01T11:59:59.819Z,4.83
2018-10-01T12:04:03.255Z,0.97
2018-10-01T12:08:06.584Z,5.37
2018-10-01T12:12:09.929Z,5.50
2018-10-01T12:16:13.459Z,2.90
2018-10-01T12:20:16.751Z,1.03
2018-10-01T12:24:20.112Z,2.10
2018-10-01T12:28:23.465Z,6.90
2018-10-01T12:32:26.785Z,0.97
2018-10-01T12:36:30.153Z,3.37
2018-10-01T12:40:33.501Z,3.70
2018-10-01T12:44:36.877Z,2.47
2018-10-01T12:48:40.327Z,0.23
2018-10-01T12:52:43.671Z,4.43
2018-10-01T12:56:47.460Z,2.00
2018-10-01T13:00:51.076Z,0.77
2018-10-01T13:04:54.494Z,1.27
2018-10-01T13:08:57.799Z,1.27
2018-10-01T13:13:01.208Z,2.50
2018-10-01T13:17:04.548Z,2.23
2018-10-01T13:21:08.118Z,5.23
2018-10-01T13:25:11.554Z,2.67
2018-10-01T13:29:14.879Z,2.23
2018-10-01T13:33:18.231Z,3.77
2018-10-01T13:37:21.670Z,2.10
2018-10-01T13:41:25.040Z,5.87
2018-10-01T13:45:28.536Z,5.53
2018-10-01T13:49:32.008Z,5.47
2018-10-01T13:53:35.385Z,3.03
2018-10-01T13:57:38.736Z,3.17
2018-10-01T14:01:42.124Z,3.27
2018-10-01T14:05:45.541Z,4.80
2018-10-01T14:09:48.887Z,2.77
2018-10-01T14:13:52.410Z,4.37
2018-10-01T14:17:55.613Z,1.87
2018-10-01T14:26:06.768Z,3.57
2018-10-01T14:30:10.236Z,7.03
2018-10-01T14:34:13.600Z,1.80
2018-10-01T14:38:16.948Z,5.77
2018-10-01T14:42:20.359Z,2.83
2018-10-01T14:46:23.710Z,3.73
2018-10-01T14:50:27.148Z,3.77
2018-10-01T14:54:30.608Z,3.83
2018-10-01T14:58:33.900Z,3.87
2018-10-01T15:02:37.252Z,2.57
2018-10-01T15:06:40.616Z,4.80
2018-10-01T15:10:44.132Z,4.70
2018-10-01T15:14:47.476Z,5.57
2018-10-01T15:18:50.826Z,4.37
2018-10-01T15:22:54.183Z,2.17
2018-10-01T15:26:57.547Z,11.80
2018-10-01T15:31:00.907Z,1.63
2018-10-01T15:35:04.303Z,4.30
2018-10-01T15:39:08.412Z,1.60
2018-10-01T15:43:11.860Z,3.60
2018-10-01T15:47:15.224Z,1.50
2018-10-01T15:51:18.645Z,2.47
2018-10-01T15:55:22.013Z,4.33
2018-10-01T15:59:25.380Z,2.37
2018-10-01T16:03:28.746Z,7.10
2018-10-01T16:07:32.168Z,5.67
2018-10-01T16:11:35.523Z,3.03
2018-10-01T16:15:38.900Z,4.57
2018-10-01T16:19:42.245Z,6.83
2018-10-01T16:23:45.606Z,8.90
2018-10-01T16:27:48.972Z,2.67
2018-10-01T16:31:52.379Z,2.73
2018-10-01T16:35:55.748Z,4.50
2018-10-01T16:39:59.208Z,3.37
2018-10-01T16:44:02.553Z,2.20
2018-10-01T16:48:05.925Z,4.37
2018-10-01T16:52:09.716Z,4.37
2018-10-01T16:56:13.080Z,2.87
2018-10-01T17:00:16.516Z,2.13
2018-10-01T17:04:19.876Z,2.03
2018-10-01T17:08:23.249Z,3.03
2018-10-01T17:12:26.597Z,0.90
2018-10-01T17:16:29.989Z,2.17
2018-10-01T17:20:33.327Z,2.60
2018-10-01T17:24:36.674Z,2.30
2018-10-01T17:28:40.101Z,5.43
2018-10-01T17:32:43.455Z,3.23
2018-10-01T17:36:46.906Z,5.50
2018-10-01T17:40:50.357Z,2.70
2018-10-01T17:44:53.760Z,5.30
2018-10-01T17:48:57.119Z,3.60
2018-10-01T17:53:00.496Z,7.33
2018-10-01T17:57:03.906Z,4.60
2018-10-01T18:01:07.812Z,3.67
2018-10-01T18:05:11.644Z,3.17
2018-10-01T18:09:15.689Z,5.07
2018-10-01T18:13:19.212Z,4.63
2018-10-01T18:17:25.672Z,6.33
2018-10-01T18:21:29.391Z,3.87
2018-10-01T18:25:32.982Z,7.80
2018-10-01T18:29:36.553Z,2.40
2018-10-01T18:33:40.096Z,7.70
2018-10-01T18:37:43.613Z,4.30
2018-10-01T18:41:48.022Z,6.00
2018-10-01T18:45:51.605Z,7.33
2018-10-01T18:49:55.326Z,3.67
2018-10-01T18:53:58.760Z,3.33
2018-10-01T18:58:02.097Z,7.13
2018-10-01T19:02:05.973Z,4.70
2018-10-01T19:06:10.704Z,4.80
2018-10-01T19:10:14.282Z,2.40
2018-10-01T19:14:18.975Z,8.67
2018-10-01T19:18:22.859Z,2.97
2018-10-01T19:22:26.464Z,4.57
2018-10-01T19:26:31.204Z,2.30
2018-10-01T19:30:35.066Z,6.03
2018-10-01T19:34:39.378Z,5.27
2018-10-01T19:38:43.910Z,9.43
2018-10-01T19:42:47.775Z,5.03
2018-10-01T19:46:51.796Z,5.43
2018-10-01T19:50:56.126Z,2.57
2018-10-01T19:54:59.477Z,5.07
2018-10-01T19:59:03.515Z,6.53
2018-10-01T20:03:07.178Z,4.53
2018-10-01T20:07:11.385Z,7.50
2018-10-01T20:11:15.505Z,8.30
2018-10-01T20:15:19.219Z,8.73
2018-10-01T20:19:23.841Z,9.07
2018-10-01T20:23:28.896Z,5.83
2018-10-01T20:27:33.388Z,7.40
2018-10-01T20:31:37.251Z,5.60
2018-10-01T20:35:40.880Z,4.90
2018-10-01T20:39:45.039Z,8.23
2018-10-01T20:43:49.265Z,7.13
2018-10-01T20:47:53.746Z,6.00
2018-10-01T20:51:57.735Z,8.27
2018-10-01T20:56:02.191Z,6.90
2018-10-01T21:00:06.515Z,7.13
2018-10-01T21:04:12.850Z,7.00
2018-10-01T21:08:17.442Z,6.90
2018-10-01T21:12:22.303Z,6.50
2018-10-01T21:16:27.838Z,5.00
2018-10-01T21:20:33.848Z,10.43
2018-10-01T21:24:38.648Z,12.20
2018-10-01T21:28:43.326Z,5.17
2018-10-01T21:32:47.572Z,7.90
2018-10-01T21:36:52.472Z,9.80
2018-10-01T21:40:57.492Z,7.37
2018-10-01T21:45:01.764Z,5.27
2018-10-01T21:49:06.355Z,7.80
2018-10-01T21:53:10.891Z,15.23
2018-10-01T21:57:15.256Z,7.73
2018-10-01T22:01:24.048Z,10.27
2018-10-01T22:05:27.411Z,9.73
2018-10-01T22:09:30.766Z,7.03
2018-10-01T22:13:34.116Z,8.83
2018-10-01T22:17:37.474Z,7.33
2018-10-01T22:21:40.953Z,6.93
2018-10-01T22:25:44.324Z,9.47
2018-10-01T22:29:47.703Z,6.23
2018-10-01T22:33:51.043Z,7.87
2018-10-01T22:37:54.391Z,6.17
2018-10-01T22:41:57.755Z,5.77
2018-10-01T22:46:01.123Z,7.03
2018-10-01T22:50:05.020Z,7.13
2018-10-01T22:54:08.351Z,10.53
2018-10-01T22:58:11.708Z,11.00
2018-10-01T23:02:15.071Z,9.37
2018-10-01T23:06:18.423Z,9.23
2018-10-01T23:10:21.912Z,7.70
2018-10-01T23:14:25.254Z,7.93
2018-10-01T23:18:28.618Z,10.57
2018-10-01T23:22:31.986Z,7.53
2018-10-01T23:26:35.366Z,11.93
2018-10-01T23:30:38.841Z,17.10
2018-10-01T23:34:42.192Z,15.07
2018-10-01T23:38:45.559Z,10.60
2018-10-01T23:42:48.914Z,10.17
2018-10-01T23:46:52.263Z,6.60
2018-10-01T23:50:55.671Z,10.27
2018-10-01T23:54:58.999Z,7.27
2018-10-01T23:59:02.359Z,7.37
